sensor_id;sensor_type;location;lat;lon;timestamp;P1;durP1;ratioP1;P2;durP2;ratioP2
29728;SDS011;20055;51.498;11.960;2024-02-16T00:01:42;19.70;;;6.53;;
29728;SDS011;20055;51.498;11.960;2024-02-16T00:04:08;15.40;;;7.38;;
29728;SDS011;20055;51.498;11.960;2024-02-16T00:06:34;10.07;;;6.28;;
29728;SDS011;20055;51.498;11.960;2024-02-16T00:09:00;17.00;;;6.40;;
29728;SDS011;20055;51.498;11.960;2024-02-16T00:11:26;18.08;;;6.30;;
29728;SDS011;20055;51.498;11.960;2024-02-16T00:13:54;10.90;;;5.88;;
29728;SDS011;20055;51.498;11.960;2024-02-16T00:16:20;15.55;;;6.63;;
29728;SDS011;20055;51.498;11.960;2024-02-16T00:18:46;13.68;;;6.53;;
29728;SDS011;20055;51.498;11.960;2024-02-16T00:21:12;13.20;;;6.07;;
29728;SDS011;20055;51.498;11.960;2024-02-16T00:23:39;18.35;;;5.72;;
29728;SDS011;20055;51.498;11.960;2024-02-16T00:26:05;10.48;;;6.25;;
29728;SDS011;20055;51.498;11.960;2024-02-16T00:28:32;17.83;;;6.32;;
29728;SDS011;20055;51.498;11.960;2024-02-16T00:30:59;17.83;;;6.30;;
29728;SDS011;20055;51.498;11.960;2024-02-16T00:33:25;14.15;;;6.43;;
29728;SDS011;20055;51.498;11.960;2024-02-16T00:35:51;10.32;;;5.68;;
29728;SDS011;20055;51.498;11.960;2024-02-16T00:38:18;13.30;;;6.53;;
29728;SDS011;20055;51.498;11.960;2024-02-16T00:40:44;19.95;;;6.38;;
29728;SDS011;20055;51.498;11.960;2024-02-16T00:43:10;21.63;;;6.55;;
29728;SDS011;20055;51.498;11.960;2024-02-16T00:45:37;14.90;;;6.05;;
29728;SDS011;20055;51.498;11.960;2024-02-16T00:48:04;11.73;;;6.53;;
29728;SDS011;20055;51.498;11.960;2024-02-16T00:50:32;13.70;;;5.97;;
29728;SDS011;20055;51.498;11.960;2024-02-16T00:52:58;16.10;;;5.95;;
29728;SDS011;20055;51.498;11.960;2024-02-16T00:55:25;12.57;;;6.63;;
29728;SDS011;20055;51.498;11.960;2024-02-16T00:57:52;12.00;;;5.85;;
29728;SDS011;20055;51.498;11.960;2024-02-16T01:00:18;13.70;;;5.50;;
29728;SDS011;20055;51.498;11.960;2024-02-16T01:02:45;12.02;;;5.55;;
29728;SDS011;20055;51.498;11.960;2024-02-16T01:05:11;12.30;;;5.78;;
29728;SDS011;20055;51.498;11.960;2024-02-16T01:07:38;11.68;;;6.13;;
29728;SDS011;20055;51.498;11.960;2024-02-16T01:10:05;15.95;;;6.25;;
29728;SDS011;20055;51.498;11.960;2024-02-16T01:12:31;15.60;;;6.07;;
29728;SDS011;20055;51.498;11.960;2024-02-16T01:14:58;12.38;;;6.47;;
29728;SDS011;20055;51.498;11.960;2024-02-16T01:17:24;15.52;;;6.20;;
29728;SDS011;20055;51.498;11.960;2024-02-16T01:19:50;13.43;;;5.97;;
29728;SDS011;20055;51.498;11.960;2024-02-16T01:22:17;14.20;;;6.47;;
29728;SDS011;20055;51.498;11.960;2024-02-16T01:24:44;12.63;;;5.32;;
29728;SDS011;20055;51.498;11.960;2024-02-16T01:27:10;11.77;;;6.05;;
29728;SDS011;20055;51.498;11.960;2024-02-16T01:29:37;15.00;;;5.97;;
29728;SDS011;20055;51.498;11.960;2024-02-16T01:32:03;12.65;;;6.13;;
29728;SDS011;20055;51.498;11.960;2024-02-16T01:34:29;10.90;;;6.20;;
29728;SDS011;20055;51.498;11.960;2024-02-16T01:36:58;17.60;;;6.30;;
29728;SDS011;20055;51.498;11.960;2024-02-16T01:39:24;10.85;;;5.90;;
29728;SDS011;20055;51.498;11.960;2024-02-16T01:41:51;13.25;;;6.05;;
29728;SDS011;20055;51.498;11.960;2024-02-16T01:44:18;13.48;;;6.22;;
29728;SDS011;20055;51.498;11.960;2024-02-16T01:46:44;18.60;;;6.18;;
29728;SDS011;20055;51.498;11.960;2024-02-16T01:49:10;10.68;;;5.78;;
29728;SDS011;20055;51.498;11.960;2024-02-16T01:51:37;8.85;;;5.90;;
29728;SDS011;20055;51.498;11.960;2024-02-16T01:54:03;15.40;;;6.85;;
29728;SDS011;20055;51.498;11.960;2024-02-16T01:56:30;12.60;;;5.60;;
29728;SDS011;20055;51.498;11.960;2024-02-16T01:58:57;8.93;;;5.40;;
29728;SDS011;20055;51.498;11.960;2024-02-16T02:01:23;12.75;;;5.93;;
29728;SDS011;20055;51.498;11.960;2024-02-16T02:03:49;11.55;;;5.47;;
29728;SDS011;20055;51.498;11.960;2024-02-16T02:06:17;15.07;;;6.90;;
29728;SDS011;20055;51.498;11.960;2024-02-16T02:08:43;10.77;;;5.32;;
29728;SDS011;20055;51.498;11.960;2024-02-16T02:11:09;17.27;;;5.50;;
29728;SDS011;20055;51.498;11.960;2024-02-16T02:13:35;12.48;;;6.07;;
29728;SDS011;20055;51.498;11.960;2024-02-16T02:16:03;14.63;;;6.20;;
29728;SDS011;20055;51.498;11.960;2024-02-16T02:18:31;20.13;;;6.78;;
29728;SDS011;20055;51.498;11.960;2024-02-16T02:20:57;9.50;;;5.80;;
29728;SDS011;20055;51.498;11.960;2024-02-16T02:23:24;11.73;;;5.50;;
29728;SDS011;20055;51.498;11.960;2024-02-16T02:25:50;12.20;;;5.63;;
29728;SDS011;20055;51.498;11.960;2024-02-16T02:28:16;11.40;;;5.65;;
29728;SDS011;20055;51.498;11.960;2024-02-16T02:30:43;13.32;;;6.40;;
29728;SDS011;20055;51.498;11.960;2024-02-16T02:33:10;14.68;;;5.93;;
29728;SDS011;20055;51.498;11.960;2024-02-16T02:35:38;8.85;;;4.68;;
29728;SDS011;20055;51.498;11.960;2024-02-16T02:38:05;11.90;;;4.90;;
29728;SDS011;20055;51.498;11.960;2024-02-16T02:40:32;10.80;;;5.25;;
29728;SDS011;20055;51.498;11.960;2024-02-16T02:42:58;8.48;;;5.10;;
29728;SDS011;20055;51.498;11.960;2024-02-16T02:45:24;13.40;;;5.70;;
29728;SDS011;20055;51.498;11.960;2024-02-16T02:47:51;7.57;;;4.82;;
29728;SDS011;20055;51.498;11.960;2024-02-16T02:50:17;9.60;;;4.78;;
29728;SDS011;20055;51.498;11.960;2024-02-16T02:52:44;12.10;;;5.45;;
29728;SDS011;20055;51.498;11.960;2024-02-16T02:55:11;11.85;;;5.55;;
29728;SDS011;20055;51.498;11.960;2024-02-16T02:57:37;11.40;;;5.28;;
29728;SDS011;20055;51.498;11.960;2024-02-16T03:00:04;12.73;;;5.63;;
29728;SDS011;20055;51.498;11.960;2024-02-16T03:02:32;13.85;;;5.40;;
29728;SDS011;20055;51.498;11.960;2024-02-16T03:04:58;9.48;;;4.88;;
29728;SDS011;20055;51.498;11.960;2024-02-16T03:07:25;10.85;;;5.03;;
29728;SDS011;20055;51.498;11.960;2024-02-16T03:09:51;13.07;;;5.00;;
29728;SDS011;20055;51.498;11.960;2024-02-16T03:12:17;13.00;;;4.80;;
29728;SDS011;20055;51.498;11.960;2024-02-16T03:14:43;7.93;;;5.10;;
29728;SDS011;20055;51.498;11.960;2024-02-16T03:17:09;14.23;;;5.18;;
29728;SDS011;20055;51.498;11.960;2024-02-16T03:19:36;18.73;;;5.22;;
29728;SDS011;20055;51.498;11.960;2024-02-16T03:22:02;8.45;;;5.32;;
29728;SDS011;20055;51.498;11.960;2024-02-16T03:24:28;15.20;;;5.88;;
29728;SDS011;20055;51.498;11.960;2024-02-16T03:26:54;9.63;;;4.00;;
29728;SDS011;20055;51.498;11.960;2024-02-16T03:29:20;8.02;;;4.78;;
29728;SDS011;20055;51.498;11.960;2024-02-16T03:31:47;16.05;;;5.20;;
29728;SDS011;20055;51.498;11.960;2024-02-16T03:34:13;8.38;;;4.63;;
29728;SDS011;20055;51.498;11.960;2024-02-16T03:36:39;12.75;;;5.53;;
29728;SDS011;20055;51.498;11.960;2024-02-16T03:39:06;15.07;;;5.93;;
29728;SDS011;20055;51.498;11.960;2024-02-16T03:41:34;15.35;;;5.72;;
29728;SDS011;20055;51.498;11.960;2024-02-16T03:44:00;14.57;;;5.15;;
29728;SDS011;20055;51.498;11.960;2024-02-16T03:46:27;14.75;;;5.45;;
29728;SDS011;20055;51.498;11.960;2024-02-16T03:48:53;16.23;;;5.65;;
29728;SDS011;20055;51.498;11.960;2024-02-16T03:51:19;12.65;;;4.72;;
29728;SDS011;20055;51.498;11.960;2024-02-16T03:53:47;12.27;;;4.57;;
29728;SDS011;20055;51.498;11.960;2024-02-16T03:56:18;11.85;;;5.35;;
29728;SDS011;20055;51.498;11.960;2024-02-16T03:58:45;15.68;;;6.43;;
29728;SDS011;20055;51.498;11.960;2024-02-16T04:01:12;15.60;;;6.35;;
29728;SDS011;20055;51.498;11.960;2024-02-16T04:03:39;19.42;;;5.38;;
29728;SDS011;20055;51.498;11.960;2024-02-16T04:06:05;16.45;;;5.25;;
29728;SDS011;20055;51.498;11.960;2024-02-16T04:08:31;18.35;;;5.45;;
29728;SDS011;20055;51.498;11.960;2024-02-16T04:10:57;14.95;;;5.95;;
29728;SDS011;20055;51.498;11.960;2024-02-16T04:13:23;9.70;;;5.32;;
29728;SDS011;20055;51.498;11.960;2024-02-16T04:15:49;12.55;;;4.85;;
29728;SDS011;20055;51.498;11.960;2024-02-16T04:18:16;12.60;;;4.88;;
29728;SDS011;20055;51.498;11.960;2024-02-16T04:20:42;12.93;;;4.97;;
29728;SDS011;20055;51.498;11.960;2024-02-16T04:23:08;13.13;;;5.32;;
29728;SDS011;20055;51.498;11.960;2024-02-16T04:25:34;15.32;;;5.60;;
29728;SDS011;20055;51.498;11.960;2024-02-16T04:28:00;10.43;;;5.38;;
29728;SDS011;20055;51.498;11.960;2024-02-16T04:30:27;15.13;;;5.07;;
29728;SDS011;20055;51.498;11.960;2024-02-16T04:32:53;14.38;;;4.38;;
29728;SDS011;20055;51.498;11.960;2024-02-16T04:35:19;12.50;;;4.28;;
29728;SDS011;20055;51.498;11.960;2024-02-16T04:37:45;10.57;;;4.47;;
29728;SDS011;20055;51.498;11.960;2024-02-16T04:40:11;16.42;;;5.05;;
29728;SDS011;20055;51.498;11.960;2024-02-16T04:42:38;9.48;;;4.60;;
29728;SDS011;20055;51.498;11.960;2024-02-16T04:45:06;16.75;;;4.15;;
29728;SDS011;20055;51.498;11.960;2024-02-16T04:47:33;8.20;;;4.13;;
29728;SDS011;20055;51.498;11.960;2024-02-16T04:49:59;10.23;;;4.22;;
29728;SDS011;20055;51.498;11.960;2024-02-16T04:52:25;15.40;;;5.43;;
29728;SDS011;20055;51.498;11.960;2024-02-16T04:54:52;8.50;;;4.65;;
29728;SDS011;20055;51.498;11.960;2024-02-16T04:57:18;10.55;;;4.07;;
29728;SDS011;20055;51.498;11.960;2024-02-16T04:59:44;17.05;;;5.32;;
29728;SDS011;20055;51.498;11.960;2024-02-16T05:02:10;15.25;;;4.57;;
29728;SDS011;20055;51.498;11.960;2024-02-16T05:04:36;10.35;;;4.57;;
29728;SDS011;20055;51.498;11.960;2024-02-16T05:07:04;11.38;;;4.13;;
29728;SDS011;20055;51.498;11.960;2024-02-16T05:09:32;11.43;;;4.10;;
29728;SDS011;20055;51.498;11.960;2024-02-16T05:11:58;7.22;;;3.70;;
29728;SDS011;20055;51.498;11.960;2024-02-16T05:14:24;11.82;;;3.78;;
29728;SDS011;20055;51.498;11.960;2024-02-16T05:16:51;9.65;;;4.10;;
29728;SDS011;20055;51.498;11.960;2024-02-16T05:19:17;10.63;;;3.85;;
29728;SDS011;20055;51.498;11.960;2024-02-16T05:21:44;10.88;;;3.90;;
29728;SDS011;20055;51.498;11.960;2024-02-16T05:24:10;13.40;;;3.55;;
29728;SDS011;20055;51.498;11.960;2024-02-16T05:26:36;9.80;;;4.13;;
29728;SDS011;20055;51.498;11.960;2024-02-16T05:29:03;8.57;;;3.08;;
29728;SDS011;20055;51.498;11.960;2024-02-16T05:31:29;9.35;;;3.40;;
29728;SDS011;20055;51.498;11.960;2024-02-16T05:33:56;7.03;;;3.58;;
29728;SDS011;20055;51.498;11.960;2024-02-16T05:36:23;8.95;;;3.03;;
29728;SDS011;20055;51.498;11.960;2024-02-16T05:38:55;11.93;;;3.25;;
29728;SDS011;20055;51.498;11.960;2024-02-16T05:41:25;9.95;;;3.45;;
29728;SDS011;20055;51.498;11.960;2024-02-16T05:43:51;8.30;;;3.42;;
29728;SDS011;20055;51.498;11.960;2024-02-16T05:46:17;8.52;;;2.67;;
29728;SDS011;20055;51.498;11.960;2024-02-16T05:48:44;5.88;;;3.22;;
29728;SDS011;20055;51.498;11.960;2024-02-16T05:51:10;9.55;;;2.67;;
29728;SDS011;20055;51.498;11.960;2024-02-16T05:53:40;7.70;;;3.13;;
29728;SDS011;20055;51.498;11.960;2024-02-16T05:56:06;6.72;;;2.80;;
29728;SDS011;20055;51.498;11.960;2024-02-16T05:58:32;6.38;;;3.00;;
29728;SDS011;20055;51.498;11.960;2024-02-16T06:00:59;10.27;;;3.45;;
29728;SDS011;20055;51.498;11.960;2024-02-16T06:03:26;14.52;;;4.40;;
29728;SDS011;20055;51.498;11.960;2024-02-16T06:05:55;11.27;;;4.10;;
29728;SDS011;20055;51.498;11.960;2024-02-16T06:08:21;9.70;;;3.40;;
29728;SDS011;20055;51.498;11.960;2024-02-16T06:10:47;6.63;;;3.38;;
29728;SDS011;20055;51.498;11.960;2024-02-16T06:13:17;8.07;;;3.45;;
29728;SDS011;20055;51.498;11.960;2024-02-16T06:15:45;8.48;;;4.00;;
29728;SDS011;20055;51.498;11.960;2024-02-16T06:18:11;8.15;;;3.60;;
29728;SDS011;20055;51.498;11.960;2024-02-16T06:20:37;11.05;;;2.67;;
29728;SDS011;20055;51.498;11.960;2024-02-16T06:23:04;8.98;;;2.80;;
29728;SDS011;20055;51.498;11.960;2024-02-16T06:25:30;6.95;;;2.97;;
29728;SDS011;20055;51.498;11.960;2024-02-16T06:27:56;7.63;;;3.22;;
29728;SDS011;20055;51.498;11.960;2024-02-16T06:30:23;9.32;;;3.10;;
29728;SDS011;20055;51.498;11.960;2024-02-16T06:32:49;5.80;;;3.13;;
29728;SDS011;20055;51.498;11.960;2024-02-16T06:35:15;9.68;;;2.97;;
29728;SDS011;20055;51.498;11.960;2024-02-16T06:37:41;8.55;;;3.40;;
29728;SDS011;20055;51.498;11.960;2024-02-16T06:40:07;6.85;;;4.00;;
29728;SDS011;20055;51.498;11.960;2024-02-16T06:42:37;7.57;;;3.43;;
29728;SDS011;20055;51.498;11.960;2024-02-16T06:45:04;11.20;;;3.70;;
29728;SDS011;20055;51.498;11.960;2024-02-16T06:47:31;10.15;;;3.90;;
29728;SDS011;20055;51.498;11.960;2024-02-16T06:49:57;7.50;;;3.45;;
29728;SDS011;20055;51.498;11.960;2024-02-16T06:52:24;12.65;;;3.67;;
29728;SDS011;20055;51.498;11.960;2024-02-16T06:54:50;9.02;;;3.90;;
29728;SDS011;20055;51.498;11.960;2024-02-16T06:57:17;8.02;;;4.28;;
29728;SDS011;20055;51.498;11.960;2024-02-16T06:59:43;14.30;;;4.75;;
29728;SDS011;20055;51.498;11.960;2024-02-16T07:02:09;9.35;;;3.90;;
29728;SDS011;20055;51.498;11.960;2024-02-16T07:04:39;9.23;;;4.25;;
29728;SDS011;20055;51.498;11.960;2024-02-16T07:07:06;12.77;;;4.00;;
29728;SDS011;20055;51.498;11.960;2024-02-16T07:09:33;6.97;;;3.63;;
29728;SDS011;20055;51.498;11.960;2024-02-16T07:12:01;11.73;;;3.78;;
29728;SDS011;20055;51.498;11.960;2024-02-16T07:14:28;7.00;;;3.97;;
29728;SDS011;20055;51.498;11.960;2024-02-16T07:16:54;8.30;;;3.63;;
29728;SDS011;20055;51.498;11.960;2024-02-16T07:19:20;8.30;;;3.00;;
29728;SDS011;20055;51.498;11.960;2024-02-16T07:21:46;7.55;;;3.00;;
29728;SDS011;20055;51.498;11.960;2024-02-16T07:24:13;7.15;;;3.08;;
29728;SDS011;20055;51.498;11.960;2024-02-16T07:26:40;13.98;;;3.20;;
29728;SDS011;20055;51.498;11.960;2024-02-16T07:29:08;11.77;;;3.65;;
29728;SDS011;20055;51.498;11.960;2024-02-16T07:31:34;6.10;;;3.40;;
29728;SDS011;20055;51.498;11.960;2024-02-16T07:34:01;10.45;;;3.78;;
29728;SDS011;20055;51.498;11.960;2024-02-16T07:36:27;8.25;;;3.25;;
29728;SDS011;20055;51.498;11.960;2024-02-16T07:38:53;6.82;;;4.00;;
29728;SDS011;20055;51.498;11.960;2024-02-16T07:41:20;7.32;;;2.90;;
29728;SDS011;20055;51.498;11.960;2024-02-16T07:43:46;11.48;;;3.50;;
29728;SDS011;20055;51.498;11.960;2024-02-16T07:46:12;9.75;;;3.42;;
29728;SDS011;20055;51.498;11.960;2024-02-16T07:48:39;8.95;;;3.45;;
29728;SDS011;20055;51.498;11.960;2024-02-16T07:51:06;12.10;;;4.55;;
29728;SDS011;20055;51.498;11.960;2024-02-16T07:53:33;5.82;;;3.13;;
29728;SDS011;20055;51.498;11.960;2024-02-16T07:56:00;8.00;;;2.60;;
29728;SDS011;20055;51.498;11.960;2024-02-16T07:58:26;5.47;;;2.92;;
29728;SDS011;20055;51.498;11.960;2024-02-16T08:00:52;9.77;;;2.70;;
29728;SDS011;20055;51.498;11.960;2024-02-16T08:03:20;4.95;;;2.90;;
29728;SDS011;20055;51.498;11.960;2024-02-16T08:05:46;6.78;;;2.88;;
29728;SDS011;20055;51.498;11.960;2024-02-16T08:08:12;8.77;;;2.92;;
29728;SDS011;20055;51.498;11.960;2024-02-16T08:10:38;5.97;;;2.50;;
29728;SDS011;20055;51.498;11.960;2024-02-16T08:13:04;8.73;;;2.65;;
29728;SDS011;20055;51.498;11.960;2024-02-16T08:15:30;8.00;;;2.97;;
29728;SDS011;20055;51.498;11.960;2024-02-16T08:17:56;5.18;;;2.45;;
29728;SDS011;20055;51.498;11.960;2024-02-16T08:20:23;13.43;;;3.22;;
29728;SDS011;20055;51.498;11.960;2024-02-16T08:22:49;5.50;;;2.47;;
29728;SDS011;20055;51.498;11.960;2024-02-16T08:25:15;3.55;;;2.05;;
29728;SDS011;20055;51.498;11.960;2024-02-16T08:27:41;9.02;;;2.47;;
29728;SDS011;20055;51.498;11.960;2024-02-16T08:30:07;8.10;;;3.60;;
29728;SDS011;20055;51.498;11.960;2024-02-16T08:32:34;4.70;;;2.30;;
29728;SDS011;20055;51.498;11.960;2024-02-16T08:35:01;7.82;;;3.47;;
29728;SDS011;20055;51.498;11.960;2024-02-16T08:37:28;3.83;;;2.30;;
29728;SDS011;20055;51.498;11.960;2024-02-16T08:39:54;7.50;;;2.78;;
29728;SDS011;20055;51.498;11.960;2024-02-16T08:42:21;4.05;;;2.40;;
29728;SDS011;20055;51.498;11.960;2024-02-16T08:44:48;7.07;;;2.42;;
29728;SDS011;20055;51.498;11.960;2024-02-16T08:47:15;7.68;;;3.10;;
29728;SDS011;20055;51.498;11.960;2024-02-16T08:49:41;6.00;;;2.05;;
29728;SDS011;20055;51.498;11.960;2024-02-16T08:52:08;7.35;;;2.80;;
29728;SDS011;20055;51.498;11.960;2024-02-16T08:54:34;11.18;;;4.90;;
29728;SDS011;20055;51.498;11.960;2024-02-16T08:57:00;7.60;;;2.75;;
29728;SDS011;20055;51.498;11.960;2024-02-16T08:59:26;6.93;;;2.53;;
29728;SDS011;20055;51.498;11.960;2024-02-16T09:01:54;5.50;;;2.28;;
29728;SDS011;20055;51.498;11.960;2024-02-16T09:04:20;6.38;;;2.45;;
29728;SDS011;20055;51.498;11.960;2024-02-16T09:06:46;5.00;;;1.98;;
29728;SDS011;20055;51.498;11.960;2024-02-16T09:09:14;6.20;;;2.05;;
29728;SDS011;20055;51.498;11.960;2024-02-16T09:11:41;4.50;;;2.70;;
29728;SDS011;20055;51.498;11.960;2024-02-16T09:14:07;7.18;;;2.35;;
29728;SDS011;20055;51.498;11.960;2024-02-16T09:16:33;6.05;;;2.30;;
29728;SDS011;20055;51.498;11.960;2024-02-16T09:18:59;6.65;;;2.30;;
29728;SDS011;20055;51.498;11.960;2024-02-16T09:21:25;7.40;;;2.20;;
29728;SDS011;20055;51.498;11.960;2024-02-16T09:23:54;9.63;;;2.30;;
29728;SDS011;20055;51.498;11.960;2024-02-16T09:26:24;6.10;;;2.25;;
29728;SDS011;20055;51.498;11.960;2024-02-16T09:28:52;7.20;;;2.78;;
29728;SDS011;20055;51.498;11.960;2024-02-16T09:31:18;8.95;;;2.53;;
29728;SDS011;20055;51.498;11.960;2024-02-16T09:33:45;4.43;;;1.90;;
29728;SDS011;20055;51.498;11.960;2024-02-16T09:36:11;7.40;;;2.03;;
29728;SDS011;20055;51.498;11.960;2024-02-16T09:38:37;4.38;;;2.13;;
29728;SDS011;20055;51.498;11.960;2024-02-16T09:41:03;6.85;;;2.00;;
29728;SDS011;20055;51.498;11.960;2024-02-16T09:43:30;8.85;;;2.67;;
29728;SDS011;20055;51.498;11.960;2024-02-16T09:45:56;6.70;;;2.53;;
29728;SDS011;20055;51.498;11.960;2024-02-16T09:48:26;7.60;;;2.40;;
29728;SDS011;20055;51.498;11.960;2024-02-16T09:50:53;5.28;;;2.50;;
29728;SDS011;20055;51.498;11.960;2024-02-16T09:53:21;8.45;;;2.15;;
29728;SDS011;20055;51.498;11.960;2024-02-16T09:55:50;5.82;;;3.28;;
29728;SDS011;20055;51.498;11.960;2024-02-16T09:58:17;12.85;;;5.32;;
29728;SDS011;20055;51.498;11.960;2024-02-16T10:00:48;4.70;;;3.35;;
29728;SDS011;20055;51.498;11.960;2024-02-16T10:03:25;5.28;;;2.42;;
29728;SDS011;20055;51.498;11.960;2024-02-16T10:06:09;7.95;;;2.80;;
29728;SDS011;20055;51.498;11.960;2024-02-16T10:08:52;9.27;;;2.88;;
29728;SDS011;20055;51.498;11.960;2024-02-16T10:11:20;9.85;;;4.68;;
29728;SDS011;20055;51.498;11.960;2024-02-16T10:13:54;11.77;;;3.63;;
29728;SDS011;20055;51.498;11.960;2024-02-16T10:16:22;5.95;;;2.60;;
29728;SDS011;20055;51.498;11.960;2024-02-16T10:18:48;9.48;;;3.13;;
29728;SDS011;20055;51.498;11.960;2024-02-16T10:21:23;4.80;;;2.45;;
29728;SDS011;20055;51.498;11.960;2024-02-16T10:26:26;3.90;;;2.55;;
29728;SDS011;20055;51.498;11.960;2024-02-16T10:28:54;4.70;;;2.83;;
29728;SDS011;20055;51.498;11.960;2024-02-16T10:31:22;9.63;;;3.08;;
29728;SDS011;20055;51.498;11.960;2024-02-16T10:33:55;12.38;;;2.67;;
29728;SDS011;20055;51.498;11.960;2024-02-16T10:36:32;8.88;;;3.15;;
29728;SDS011;20055;51.498;11.960;2024-02-16T10:38:59;8.95;;;2.80;;
29728;SDS011;20055;51.498;11.960;2024-02-16T10:41:34;4.47;;;2.95;;
29728;SDS011;20055;51.498;11.960;2024-02-16T10:44:02;5.63;;;2.72;;
29728;SDS011;20055;51.498;11.960;2024-02-16T10:46:30;6.65;;;2.95;;
29728;SDS011;20055;51.498;11.960;2024-02-16T10:48:56;6.00;;;2.88;;
29728;SDS011;20055;51.498;11.960;2024-02-16T10:51:24;5.47;;;3.00;;
29728;SDS011;20055;51.498;11.960;2024-02-16T10:54:00;9.10;;;2.67;;
29728;SDS011;20055;51.498;11.960;2024-02-16T10:56:37;15.55;;;3.95;;
29728;SDS011;20055;51.498;11.960;2024-02-16T10:59:05;6.40;;;3.88;;
29728;SDS011;20055;51.498;11.960;2024-02-16T11:01:37;11.68;;;2.92;;
29728;SDS011;20055;51.498;11.960;2024-02-16T11:04:05;4.25;;;2.85;;
29728;SDS011;20055;51.498;11.960;2024-02-16T11:06:47;5.53;;;2.28;;
29728;SDS011;20055;51.498;11.960;2024-02-16T11:09:25;10.23;;;2.78;;
29728;SDS011;20055;51.498;11.960;2024-02-16T11:11:53;4.30;;;2.17;;
29728;SDS011;20055;51.498;11.960;2024-02-16T11:14:21;13.30;;;5.60;;
29728;SDS011;20055;51.498;11.960;2024-02-16T11:16:48;5.28;;;2.10;;
29728;SDS011;20055;51.498;11.960;2024-02-16T11:19:14;6.72;;;2.63;;
29728;SDS011;20055;51.498;11.960;2024-02-16T11:21:55;10.10;;;2.20;;
29728;SDS011;20055;51.498;11.960;2024-02-16T11:24:31;9.02;;;1.70;;
29728;SDS011;20055;51.498;11.960;2024-02-16T11:26:58;7.75;;;2.22;;
29728;SDS011;20055;51.498;11.960;2024-02-16T11:29:27;4.90;;;2.25;;
29728;SDS011;20055;51.498;11.960;2024-02-16T11:31:57;6.53;;;2.20;;
29728;SDS011;20055;51.498;11.960;2024-02-16T11:34:24;11.10;;;2.53;;
29728;SDS011;20055;51.498;11.960;2024-02-16T11:36:54;3.80;;;1.80;;
29728;SDS011;20055;51.498;11.960;2024-02-16T11:39:21;3.53;;;1.90;;
29728;SDS011;20055;51.498;11.960;2024-02-16T11:41:48;6.78;;;2.35;;
29728;SDS011;20055;51.498;11.960;2024-02-16T11:44:28;9.18;;;3.85;;
29728;SDS011;20055;51.498;11.960;2024-02-16T11:46:58;6.78;;;2.42;;
29728;SDS011;20055;51.498;11.960;2024-02-16T11:49:25;5.22;;;2.03;;
29728;SDS011;20055;51.498;11.960;2024-02-16T11:51:54;8.20;;;2.33;;
29728;SDS011;20055;51.498;11.960;2024-02-16T11:54:20;3.70;;;1.80;;
29728;SDS011;20055;51.498;11.960;2024-02-16T11:56:47;3.65;;;1.88;;
29728;SDS011;20055;51.498;11.960;2024-02-16T11:59:18;3.33;;;2.00;;
29728;SDS011;20055;51.498;11.960;2024-02-16T12:01:48;3.85;;;2.33;;
29728;SDS011;20055;51.498;11.960;2024-02-16T12:04:28;6.88;;;2.30;;
29728;SDS011;20055;51.498;11.960;2024-02-16T12:06:59;6.57;;;1.92;;
29728;SDS011;20055;51.498;11.960;2024-02-16T12:09:27;5.22;;;1.95;;
29728;SDS011;20055;51.498;11.960;2024-02-16T12:11:54;4.85;;;2.08;;
29728;SDS011;20055;51.498;11.960;2024-02-16T12:14:22;8.13;;;2.38;;
29728;SDS011;20055;51.498;11.960;2024-02-16T12:16:55;3.83;;;1.85;;
29728;SDS011;20055;51.498;11.960;2024-02-16T12:19:22;4.30;;;1.85;;
29728;SDS011;20055;51.498;11.960;2024-02-16T12:21:52;6.28;;;2.15;;
29728;SDS011;20055;51.498;11.960;2024-02-16T12:24:19;7.43;;;2.30;;
29728;SDS011;20055;51.498;11.960;2024-02-16T12:26:46;4.53;;;2.40;;
29728;SDS011;20055;51.498;11.960;2024-02-16T12:29:12;3.15;;;2.00;;
29728;SDS011;20055;51.498;11.960;2024-02-16T12:31:42;9.13;;;2.20;;
29728;SDS011;20055;51.498;11.960;2024-02-16T12:34:10;6.90;;;2.40;;
29728;SDS011;20055;51.498;11.960;2024-02-16T12:36:38;4.20;;;2.28;;
29728;SDS011;20055;51.498;11.960;2024-02-16T12:39:06;8.57;;;2.05;;
29728;SDS011;20055;51.498;11.960;2024-02-16T12:41:32;6.68;;;2.40;;
29728;SDS011;20055;51.498;11.960;2024-02-16T12:43:59;6.18;;;2.03;;
29728;SDS011;20055;51.498;11.960;2024-02-16T12:46:26;3.22;;;1.85;;
29728;SDS011;20055;51.498;11.960;2024-02-16T12:48:53;5.88;;;2.30;;
29728;SDS011;20055;51.498;11.960;2024-02-16T12:51:20;5.20;;;2.20;;
29728;SDS011;20055;51.498;11.960;2024-02-16T12:53:46;6.63;;;2.10;;
29728;SDS011;20055;51.498;11.960;2024-02-16T12:56:12;5.25;;;2.10;;
29728;SDS011;20055;51.498;11.960;2024-02-16T12:58:38;6.63;;;2.63;;
29728;SDS011;20055;51.498;11.960;2024-02-16T13:01:05;3.25;;;1.90;;
29728;SDS011;20055;51.498;11.960;2024-02-16T13:03:35;7.88;;;2.33;;
29728;SDS011;20055;51.498;11.960;2024-02-16T13:06:02;5.30;;;3.38;;
29728;SDS011;20055;51.498;11.960;2024-02-16T13:08:29;8.88;;;2.75;;
29728;SDS011;20055;51.498;11.960;2024-02-16T13:10:56;8.98;;;2.33;;
29728;SDS011;20055;51.498;11.960;2024-02-16T13:13:23;10.98;;;2.30;;
29728;SDS011;20055;51.498;11.960;2024-02-16T13:15:49;7.07;;;1.98;;
29728;SDS011;20055;51.498;11.960;2024-02-16T13:18:16;3.75;;;2.10;;
29728;SDS011;20055;51.498;11.960;2024-02-16T13:20:43;5.95;;;2.25;;
29728;SDS011;20055;51.498;11.960;2024-02-16T13:23:09;10.55;;;2.00;;
29728;SDS011;20055;51.498;11.960;2024-02-16T13:25:36;6.22;;;1.90;;
29728;SDS011;20055;51.498;11.960;2024-02-16T13:28:02;5.82;;;2.15;;
29728;SDS011;20055;51.498;11.960;2024-02-16T13:30:29;3.40;;;2.00;;
29728;SDS011;20055;51.498;11.960;2024-02-16T13:32:55;6.18;;;2.13;;
29728;SDS011;20055;51.498;11.960;2024-02-16T13:35:23;4.63;;;2.47;;
29728;SDS011;20055;51.498;11.960;2024-02-16T13:37:49;7.57;;;3.17;;
29728;SDS011;20055;51.498;11.960;2024-02-16T13:40:15;3.85;;;2.58;;
29728;SDS011;20055;51.498;11.960;2024-02-16T13:42:43;9.23;;;2.90;;
29728;SDS011;20055;51.498;11.960;2024-02-16T13:45:10;6.20;;;2.67;;
29728;SDS011;20055;51.498;11.960;2024-02-16T13:47:37;4.93;;;2.22;;
29728;SDS011;20055;51.498;11.960;2024-02-16T13:50:07;2.55;;;2.00;;
29728;SDS011;20055;51.498;11.960;2024-02-16T13:52:33;8.48;;;2.28;;
29728;SDS011;20055;51.498;11.960;2024-02-16T13:55:00;4.78;;;1.73;;
29728;SDS011;20055;51.498;11.960;2024-02-16T13:57:27;5.22;;;2.42;;
29728;SDS011;20055;51.498;11.960;2024-02-16T13:59:53;3.65;;;1.90;;
29728;SDS011;20055;51.498;11.960;2024-02-16T14:02:20;5.50;;;2.40;;
29728;SDS011;20055;51.498;11.960;2024-02-16T14:04:46;3.72;;;1.80;;
29728;SDS011;20055;51.498;11.960;2024-02-16T14:07:12;9.10;;;2.42;;
29728;SDS011;20055;51.498;11.960;2024-02-16T14:09:39;4.03;;;2.15;;
29728;SDS011;20055;51.498;11.960;2024-02-16T14:12:05;4.15;;;2.08;;
29728;SDS011;20055;51.498;11.960;2024-02-16T14:14:31;5.78;;;2.40;;
29728;SDS011;20055;51.498;11.960;2024-02-16T14:16:58;4.40;;;2.30;;
29728;SDS011;20055;51.498;11.960;2024-02-16T14:19:24;5.03;;;2.00;;
29728;SDS011;20055;51.498;11.960;2024-02-16T14:21:50;4.35;;;2.20;;
29728;SDS011;20055;51.498;11.960;2024-02-16T14:24:16;6.85;;;2.80;;
29728;SDS011;20055;51.498;11.960;2024-02-16T14:26:43;5.38;;;2.40;;
29728;SDS011;20055;51.498;11.960;2024-02-16T14:29:09;6.85;;;2.38;;
29728;SDS011;20055;51.498;11.960;2024-02-16T14:31:36;6.30;;;2.70;;